METAR Data
IDs: Format: Raw Decoded Include TAF

Data at: 0535 UTC 03 Jul 2022

METAR for:KHLB (Batesville Arpt, IN, US)
Text:KHLB 030515Z AUTO 00000KT 10SM FEW065 OVC100 21/18 A3007 RMK A01
Temperature: 21.0°C ( 70°F)
Dewpoint: 18.0°C ( 64°F) [RH = 83%]
Pressure (altimeter):30.07 inches Hg (1018.4 mb)
Winds:calm
Visibility:10 or more sm (16+ km)
Ceiling:10000 feet AGL
Clouds: few clouds at 6500 feet AGL, overcast cloud deck at 10000 feet AGL
QC Flag:automated observation with no human augmentation
Text:KHLB 030455Z AUTO 00000KT 10SM OVC100 21/18 A3007 RMK A01
Temperature: 21.0°C ( 70°F)
Dewpoint: 18.0°C ( 64°F) [RH = 83%]
Pressure (altimeter):30.07 inches Hg (1018.4 mb)
Winds:calm
Visibility:10 or more sm (16+ km)
Ceiling:10000 feet AGL
Clouds: overcast cloud deck at 10000 feet AGL
QC Flag:automated observation with no human augmentation
Text:KHLB 030435Z AUTO 00000KT 10SM BKN090 OVC110 21/20 A3007 RMK A01
Temperature: 21.0°C ( 70°F)
Dewpoint: 20.0°C ( 68°F) [RH = 94%]
Pressure (altimeter):30.07 inches Hg (1018.4 mb)
Winds:calm
Visibility:10 or more sm (16+ km)
Ceiling:9000 feet AGL
Clouds: broken clouds at 9000 feet AGL, overcast cloud deck at 11000 feet AGL
QC Flag:automated observation with no human augmentation
Text:KHLB 030415Z AUTO 00000KT 10SM FEW046 SCT075 OVC100 21/20 A3008 RMK A01
Temperature: 21.0°C ( 70°F)
Dewpoint: 20.0°C ( 68°F) [RH = 94%]
Pressure (altimeter):30.08 inches Hg (1018.7 mb)
Winds:calm
Visibility:10 or more sm (16+ km)
Ceiling:10000 feet AGL
Clouds: few clouds at 4600 feet AGL, scattered clouds at 7500 feet AGL, overcast cloud deck at 10000 feet AGL
QC Flag:automated observation with no human augmentation
Text:KHLB 030355Z AUTO 00000KT 10SM FEW042 SCT050 BKN085 21/19 A3007 RMK A01
Temperature: 21.0°C ( 70°F)
Dewpoint: 19.0°C ( 66°F) [RH = 88%]
Pressure (altimeter):30.07 inches Hg (1018.4 mb)
Winds:calm
Visibility:10 or more sm (16+ km)
Ceiling:8500 feet AGL
Clouds: few clouds at 4200 feet AGL, scattered clouds at 5000 feet AGL, broken clouds at 8500 feet AGL
QC Flag:automated observation with no human augmentation
Text:KHLB 030335Z AUTO 00000KT 10SM FEW040 SCT065 OVC110 21/19 A3007 RMK A01
Temperature: 21.0°C ( 70°F)
Dewpoint: 19.0°C ( 66°F) [RH = 88%]
Pressure (altimeter):30.07 inches Hg (1018.4 mb)
Winds:calm
Visibility:10 or more sm (16+ km)
Ceiling:11000 feet AGL
Clouds: few clouds at 4000 feet AGL, scattered clouds at 6500 feet AGL, overcast cloud deck at 11000 feet AGL
QC Flag:automated observation with no human augmentation
Text:KHLB 030315Z AUTO 00000KT 10SM SCT050 BKN080 OVC110 22/18 A3007 RMK A01
Temperature: 22.0°C ( 72°F)
Dewpoint: 18.0°C ( 64°F) [RH = 78%]
Pressure (altimeter):30.07 inches Hg (1018.4 mb)
Winds:calm
Visibility:10 or more sm (16+ km)
Ceiling:8000 feet AGL
Clouds: scattered clouds at 5000 feet AGL, broken clouds at 8000 feet AGL, overcast cloud deck at 11000 feet AGL
QC Flag:automated observation with no human augmentation
Text:KHLB 030255Z AUTO 00000KT 10SM FEW080 FEW090 BKN110 22/17 A3006 RMK A01
Temperature: 22.0°C ( 72°F)
Dewpoint: 17.0°C ( 63°F) [RH = 73%]
Pressure (altimeter):30.06 inches Hg (1018.0 mb)
Winds:calm
Visibility:10 or more sm (16+ km)
Ceiling:11000 feet AGL
Clouds: few clouds at 8000 feet AGL, few clouds at 9000 feet AGL, broken clouds at 11000 feet AGL
QC Flag:automated observation with no human augmentation
Text:KHLB 030235Z AUTO 00000KT 10SM CLR 22/18 A3006 RMK A01
Temperature: 22.0°C ( 72°F)
Dewpoint: 18.0°C ( 64°F) [RH = 78%]
Pressure (altimeter):30.06 inches Hg (1018.0 mb)
Winds:calm
Visibility:10 or more sm (16+ km)
Ceiling:at least 12,000 feet AGL
Clouds:sky clear below 12,000 feet AGL
QC Flag:automated observation with no human augmentation
Text:KHLB 030215Z AUTO 00000KT 10SM CLR 22/18 A3006 RMK A01
Temperature: 22.0°C ( 72°F)
Dewpoint: 18.0°C ( 64°F) [RH = 78%]
Pressure (altimeter):30.06 inches Hg (1018.0 mb)
Winds:calm
Visibility:10 or more sm (16+ km)
Ceiling:at least 12,000 feet AGL
Clouds:sky clear below 12,000 feet AGL
QC Flag:automated observation with no human augmentation
Text:KHLB 030155Z AUTO 00000KT 10SM CLR 23/18 A3005 RMK A01
Temperature: 23.0°C ( 73°F)
Dewpoint: 18.0°C ( 64°F) [RH = 73%]
Pressure (altimeter):30.05 inches Hg (1017.7 mb)
Winds:calm
Visibility:10 or more sm (16+ km)
Ceiling:at least 12,000 feet AGL
Clouds:sky clear below 12,000 feet AGL
QC Flag:automated observation with no human augmentation
Text:KHLB 030135Z AUTO 00000KT 10SM CLR 23/17 A3004 RMK A01
Temperature: 23.0°C ( 73°F)
Dewpoint: 17.0°C ( 63°F) [RH = 69%]
Pressure (altimeter):30.04 inches Hg (1017.4 mb)
Winds:calm
Visibility:10 or more sm (16+ km)
Ceiling:at least 12,000 feet AGL
Clouds:sky clear below 12,000 feet AGL
QC Flag:automated observation with no human augmentation
Text:KHLB 030115Z AUTO 00000KT 10SM CLR 24/17 A3003 RMK A01
Temperature: 24.0°C ( 75°F)
Dewpoint: 17.0°C ( 63°F) [RH = 65%]
Pressure (altimeter):30.03 inches Hg (1017.0 mb)
Winds:calm
Visibility:10 or more sm (16+ km)
Ceiling:at least 12,000 feet AGL
Clouds:sky clear below 12,000 feet AGL
QC Flag:automated observation with no human augmentation
Text:KHLB 030055Z AUTO 00000KT 10SM CLR 24/17 A3001 RMK A01
Temperature: 24.0°C ( 75°F)
Dewpoint: 17.0°C ( 63°F) [RH = 65%]
Pressure (altimeter):30.01 inches Hg (1016.3 mb)
Winds:calm
Visibility:10 or more sm (16+ km)
Ceiling:at least 12,000 feet AGL
Clouds:sky clear below 12,000 feet AGL
QC Flag:automated observation with no human augmentation
Text:KHLB 030035Z AUTO 00000KT 10SM CLR 25/19 A3001 RMK A01
Temperature: 25.0°C ( 77°F)
Dewpoint: 19.0°C ( 66°F) [RH = 69%]
Pressure (altimeter):30.01 inches Hg (1016.3 mb)
Winds:calm
Visibility:10 or more sm (16+ km)
Ceiling:at least 12,000 feet AGL
Clouds:sky clear below 12,000 feet AGL
QC Flag:automated observation with no human augmentation
Text:KHLB 030015Z AUTO 00000KT 10SM CLR 25/18 A3001 RMK A01
Temperature: 25.0°C ( 77°F)
Dewpoint: 18.0°C ( 64°F) [RH = 65%]
Pressure (altimeter):30.01 inches Hg (1016.3 mb)
Winds:calm
Visibility:10 or more sm (16+ km)
Ceiling:at least 12,000 feet AGL
Clouds:sky clear below 12,000 feet AGL
QC Flag:automated observation with no human augmentation
Text:KHLB 022355Z AUTO 00000KT 10SM CLR 25/21 A3001 RMK A01
Temperature: 25.0°C ( 77°F)
Dewpoint: 21.0°C ( 70°F) [RH = 79%]
Pressure (altimeter):30.01 inches Hg (1016.3 mb)
Winds:calm
Visibility:10 or more sm (16+ km)
Ceiling:at least 12,000 feet AGL
Clouds:sky clear below 12,000 feet AGL
QC Flag:automated observation with no human augmentation
Text:KHLB 022335Z AUTO 00000KT 10SM CLR 25/23 A3000 RMK A01
Temperature: 25.0°C ( 77°F)
Dewpoint: 23.0°C ( 73°F) [RH = 89%]
Pressure (altimeter):30.00 inches Hg (1016.0 mb)
Winds:calm
Visibility:10 or more sm (16+ km)
Ceiling:at least 12,000 feet AGL
Clouds:sky clear below 12,000 feet AGL
QC Flag:automated observation with no human augmentation
Text:KHLB 022315Z AUTO 00000KT 10SM CLR 26/21 A3001 RMK A01
Temperature: 26.0°C ( 79°F)
Dewpoint: 21.0°C ( 70°F) [RH = 74%]
Pressure (altimeter):30.01 inches Hg (1016.3 mb)
Winds:calm
Visibility:10 or more sm (16+ km)
Ceiling:at least 12,000 feet AGL
Clouds:sky clear below 12,000 feet AGL
QC Flag:automated observation with no human augmentation
Text:KHLB 022255Z AUTO 00000KT 10SM CLR 28/18 A3001 RMK A01
Temperature: 28.0°C ( 82°F)
Dewpoint: 18.0°C ( 64°F) [RH = 55%]
Pressure (altimeter):30.01 inches Hg (1016.3 mb)
Winds:calm
Visibility:10 or more sm (16+ km)
Ceiling:at least 12,000 feet AGL
Clouds:sky clear below 12,000 feet AGL
QC Flag:automated observation with no human augmentation
Text:KHLB 022235Z AUTO 00000KT 10SM CLR 28/19 A3001 RMK A01
Temperature: 28.0°C ( 82°F)
Dewpoint: 19.0°C ( 66°F) [RH = 58%]
Pressure (altimeter):30.01 inches Hg (1016.3 mb)
Winds:calm
Visibility:10 or more sm (16+ km)
Ceiling:at least 12,000 feet AGL
Clouds:sky clear below 12,000 feet AGL
QC Flag:automated observation with no human augmentation
Text:KHLB 022215Z AUTO 00000KT 10SM CLR 28/18 A3002 RMK A01
Temperature: 28.0°C ( 82°F)
Dewpoint: 18.0°C ( 64°F) [RH = 55%]
Pressure (altimeter):30.02 inches Hg (1016.7 mb)
Winds:calm
Visibility:10 or more sm (16+ km)
Ceiling:at least 12,000 feet AGL
Clouds:sky clear below 12,000 feet AGL
QC Flag:automated observation with no human augmentation
Text:KHLB 022155Z AUTO 00000KT 10SM CLR 28/17 A3002 RMK A01
Temperature: 28.0°C ( 82°F)
Dewpoint: 17.0°C ( 63°F) [RH = 51%]
Pressure (altimeter):30.02 inches Hg (1016.7 mb)
Winds:calm
Visibility:10 or more sm (16+ km)
Ceiling:at least 12,000 feet AGL
Clouds:sky clear below 12,000 feet AGL
QC Flag:automated observation with no human augmentation
Text:KHLB 022135Z AUTO 00000KT 10SM FEW050 29/18 A3002 RMK A01
Temperature: 29.0°C ( 84°F)
Dewpoint: 18.0°C ( 64°F) [RH = 52%]
Pressure (altimeter):30.02 inches Hg (1016.7 mb)
Winds:calm
Visibility:10 or more sm (16+ km)
Ceiling:at least 12,000 feet AGL
Clouds: few clouds at 5000 feet AGL
QC Flag:automated observation with no human augmentation
Text:KHLB 022115Z AUTO 00000KT 10SM SCT050 29/17 A3002 RMK A01
Temperature: 29.0°C ( 84°F)
Dewpoint: 17.0°C ( 63°F) [RH = 48%]
Pressure (altimeter):30.02 inches Hg (1016.7 mb)
Winds:calm
Visibility:10 or more sm (16+ km)
Ceiling:at least 12,000 feet AGL
Clouds: scattered clouds at 5000 feet AGL
QC Flag:automated observation with no human augmentation
Text:KHLB 022055Z AUTO 00000KT 10SM FEW050 29/17 A3002 RMK A01
Temperature: 29.0°C ( 84°F)
Dewpoint: 17.0°C ( 63°F) [RH = 48%]
Pressure (altimeter):30.02 inches Hg (1016.7 mb)
Winds:calm
Visibility:10 or more sm (16+ km)
Ceiling:at least 12,000 feet AGL
Clouds: few clouds at 5000 feet AGL
QC Flag:automated observation with no human augmentation
Text:KHLB 022035Z AUTO 00000KT 10SM CLR 29/17 A3002 RMK A01
Temperature: 29.0°C ( 84°F)
Dewpoint: 17.0°C ( 63°F) [RH = 48%]
Pressure (altimeter):30.02 inches Hg (1016.7 mb)
Winds:calm
Visibility:10 or more sm (16+ km)
Ceiling:at least 12,000 feet AGL
Clouds:sky clear below 12,000 feet AGL
QC Flag:automated observation with no human augmentation
Text:KHLB 022015Z AUTO VRB04G12KT 10SM CLR 29/17 A3002 RMK A01
Temperature: 29.0°C ( 84°F)
Dewpoint: 17.0°C ( 63°F) [RH = 48%]
Pressure (altimeter):30.02 inches Hg (1016.7 mb)
Winds:variable direction winds at 5 MPH (4 knots; 2.1 m/s) gusting to 14 MPH (12 knots; 6.2 m/s)
Visibility:10 or more sm (16+ km)
Ceiling:at least 12,000 feet AGL
Clouds:sky clear below 12,000 feet AGL
QC Flag:automated observation with no human augmentation
Text:KHLB 021955Z AUTO 00000KT 10SM CLR 29/16 A3002 RMK A01
Temperature: 29.0°C ( 84°F)
Dewpoint: 16.0°C ( 61°F) [RH = 45%]
Pressure (altimeter):30.02 inches Hg (1016.7 mb)
Winds:calm
Visibility:10 or more sm (16+ km)
Ceiling:at least 12,000 feet AGL
Clouds:sky clear below 12,000 feet AGL
QC Flag:automated observation with no human augmentation
Text:KHLB 021935Z AUTO VRB04KT 10SM CLR 29/18 A3003 RMK A01
Temperature: 29.0°C ( 84°F)
Dewpoint: 18.0°C ( 64°F) [RH = 52%]
Pressure (altimeter):30.03 inches Hg (1017.0 mb)
Winds:variable direction winds at 5 MPH (4 knots; 2.1 m/s)
Visibility:10 or more sm (16+ km)
Ceiling:at least 12,000 feet AGL
Clouds:sky clear below 12,000 feet AGL
QC Flag:automated observation with no human augmentation
Text:KHLB 021915Z AUTO VRB04KT 10SM CLR 29/17 A3004 RMK A01
Temperature: 29.0°C ( 84°F)
Dewpoint: 17.0°C ( 63°F) [RH = 48%]
Pressure (altimeter):30.04 inches Hg (1017.4 mb)
Winds:variable direction winds at 5 MPH (4 knots; 2.1 m/s)
Visibility:10 or more sm (16+ km)
Ceiling:at least 12,000 feet AGL
Clouds:sky clear below 12,000 feet AGL
QC Flag:automated observation with no human augmentation
Text:KHLB 021855Z AUTO VRB06KT 10SM CLR 29/18 A3004 RMK A01
Temperature: 29.0°C ( 84°F)
Dewpoint: 18.0°C ( 64°F) [RH = 52%]
Pressure (altimeter):30.04 inches Hg (1017.4 mb)
Winds:variable direction winds at 7 MPH (6 knots; 3.1 m/s)
Visibility:10 or more sm (16+ km)
Ceiling:at least 12,000 feet AGL
Clouds:sky clear below 12,000 feet AGL
QC Flag:automated observation with no human augmentation
Text:KHLB 021835Z AUTO VRB05KT 10SM SCT037 28/18 A3004 RMK A01
Temperature: 28.0°C ( 82°F)
Dewpoint: 18.0°C ( 64°F) [RH = 55%]
Pressure (altimeter):30.04 inches Hg (1017.4 mb)
Winds:variable direction winds at 6 MPH (5 knots; 2.6 m/s)
Visibility:10 or more sm (16+ km)
Ceiling:at least 12,000 feet AGL
Clouds: scattered clouds at 3700 feet AGL
QC Flag:automated observation with no human augmentation
Text:KHLB 021815Z AUTO 10003KT 10SM SCT036 28/19 A3004 RMK A01
Temperature: 28.0°C ( 82°F)
Dewpoint: 19.0°C ( 66°F) [RH = 58%]
Pressure (altimeter):30.04 inches Hg (1017.4 mb)
Winds:from the E (100 degrees) at 3 MPH (3 knots; 1.5 m/s)
Visibility:10 or more sm (16+ km)
Ceiling:at least 12,000 feet AGL
Clouds: scattered clouds at 3600 feet AGL
QC Flag:automated observation with no human augmentation
Text:KHLB 021755Z AUTO 34003KT 10SM CLR 28/20 A3005 RMK A01
Temperature: 28.0°C ( 82°F)
Dewpoint: 20.0°C ( 68°F) [RH = 62%]
Pressure (altimeter):30.05 inches Hg (1017.7 mb)
Winds:from the NNW (340 degrees) at 3 MPH (3 knots; 1.5 m/s)
Visibility:10 or more sm (16+ km)
Ceiling:at least 12,000 feet AGL
Clouds:sky clear below 12,000 feet AGL
QC Flag:automated observation with no human augmentation
Text:KHLB 021735Z AUTO VRB03KT 10SM CLR 28/19 A3005 RMK A01
Temperature: 28.0°C ( 82°F)
Dewpoint: 19.0°C ( 66°F) [RH = 58%]
Pressure (altimeter):30.05 inches Hg (1017.7 mb)
Winds:variable direction winds at 3 MPH (3 knots; 1.5 m/s)
Visibility:10 or more sm (16+ km)
Ceiling:at least 12,000 feet AGL
Clouds:sky clear below 12,000 feet AGL
QC Flag:automated observation with no human augmentation
Text:KHLB 021715Z AUTO VRB04KT 10SM CLR 27/20 A3005 RMK A01
Temperature: 27.0°C ( 81°F)
Dewpoint: 20.0°C ( 68°F) [RH = 66%]
Pressure (altimeter):30.05 inches Hg (1017.7 mb)
Winds:variable direction winds at 5 MPH (4 knots; 2.1 m/s)
Visibility:10 or more sm (16+ km)
Ceiling:at least 12,000 feet AGL
Clouds:sky clear below 12,000 feet AGL
QC Flag:automated observation with no human augmentation
Text:KHLB 021655Z AUTO 01003KT 10SM CLR 26/20 A3005 RMK A01
Temperature: 26.0°C ( 79°F)
Dewpoint: 20.0°C ( 68°F) [RH = 70%]
Pressure (altimeter):30.05 inches Hg (1017.7 mb)
Winds:from the N (10 degrees) at 3 MPH (3 knots; 1.5 m/s)
Visibility:10 or more sm (16+ km)
Ceiling:at least 12,000 feet AGL
Clouds:sky clear below 12,000 feet AGL
QC Flag:automated observation with no human augmentation
Text:KHLB 021550Z AUTO VRB03KT 10SM BKN021 BKN027 26/24 A3005 RMK A01
Temperature: 26.0°C ( 79°F)
Dewpoint: 24.0°C ( 75°F) [RH = 89%]
Pressure (altimeter):30.05 inches Hg (1017.7 mb)
Winds:variable direction winds at 3 MPH (3 knots; 1.5 m/s)
Visibility:10 or more sm (16+ km)
Ceiling:2100 feet AGL
Clouds: broken clouds at 2100 feet AGL, broken clouds at 2700 feet AGL
QC Flag:automated observation with no human augmentation
Text:KHLB 021535Z AUTO 00000KT 10SM SCT020 SCT027 26/25 A3005 RMK A01
Temperature: 26.0°C ( 79°F)
Dewpoint: 25.0°C ( 77°F) [RH = 94%]
Pressure (altimeter):30.05 inches Hg (1017.7 mb)
Winds:calm
Visibility:10 or more sm (16+ km)
Ceiling:at least 12,000 feet AGL
Clouds: scattered clouds at 2000 feet AGL, scattered clouds at 2700 feet AGL
QC Flag:automated observation with no human augmentation
Text:KHLB 021515Z AUTO 00000KT 10SM SCT020 25/24 A3004 RMK A01
Temperature: 25.0°C ( 77°F)
Dewpoint: 24.0°C ( 75°F) [RH = 94%]
Pressure (altimeter):30.04 inches Hg (1017.4 mb)
Winds:calm
Visibility:10 or more sm (16+ km)
Ceiling:at least 12,000 feet AGL
Clouds: scattered clouds at 2000 feet AGL
QC Flag:automated observation with no human augmentation
Text:KHLB 021455Z AUTO 03003KT 10SM FEW015 BKN021 24/24 A3004 RMK A01
Temperature: 24.0°C ( 75°F)
Dewpoint: 24.0°C ( 75°F) [RH = 100%]
Pressure (altimeter):30.04 inches Hg (1017.4 mb)
Winds:from the NNE (30 degrees) at 3 MPH (3 knots; 1.5 m/s)
Visibility:10 or more sm (16+ km)
Ceiling:2100 feet AGL
Clouds: few clouds at 1500 feet AGL, broken clouds at 2100 feet AGL
QC Flag:automated observation with no human augmentation
Text:KHLB 021435Z AUTO 00000KT 10SM SCT014 BKN021 24/24 A3004 RMK A01
Temperature: 24.0°C ( 75°F)
Dewpoint: 24.0°C ( 75°F) [RH = 100%]
Pressure (altimeter):30.04 inches Hg (1017.4 mb)
Winds:calm
Visibility:10 or more sm (16+ km)
Ceiling:2100 feet AGL
Clouds: scattered clouds at 1400 feet AGL, broken clouds at 2100 feet AGL
QC Flag:automated observation with no human augmentation
Text:KHLB 021415Z AUTO VRB03KT 10SM SCT013 24/24 A3004 RMK A01
Temperature: 24.0°C ( 75°F)
Dewpoint: 24.0°C ( 75°F) [RH = 100%]
Pressure (altimeter):30.04 inches Hg (1017.4 mb)
Winds:variable direction winds at 3 MPH (3 knots; 1.5 m/s)
Visibility:10 or more sm (16+ km)
Ceiling:at least 12,000 feet AGL
Clouds: scattered clouds at 1300 feet AGL
QC Flag:automated observation with no human augmentation
Text:KHLB 021355Z AUTO 03004KT 10SM FEW013 24/24 A3004 RMK A01
Temperature: 24.0°C ( 75°F)
Dewpoint: 24.0°C ( 75°F) [RH = 100%]
Pressure (altimeter):30.04 inches Hg (1017.4 mb)
Winds:from the NNE (30 degrees) at 5 MPH (4 knots; 2.1 m/s)
Visibility:10 or more sm (16+ km)
Ceiling:at least 12,000 feet AGL
Clouds: few clouds at 1300 feet AGL
QC Flag:automated observation with no human augmentation
Text:KHLB 021335Z AUTO VRB03KT 10SM CLR 23/23 A3004 RMK A01
Temperature: 23.0°C ( 73°F)
Dewpoint: 23.0°C ( 73°F) [RH = 100%]
Pressure (altimeter):30.04 inches Hg (1017.4 mb)
Winds:variable direction winds at 3 MPH (3 knots; 1.5 m/s)
Visibility:10 or more sm (16+ km)
Ceiling:at least 12,000 feet AGL
Clouds:sky clear below 12,000 feet AGL
QC Flag:automated observation with no human augmentation
Text:KHLB 021315Z AUTO VRB04KT 10SM CLR 23/23 A3004 RMK A01
Temperature: 23.0°C ( 73°F)
Dewpoint: 23.0°C ( 73°F) [RH = 100%]
Pressure (altimeter):30.04 inches Hg (1017.4 mb)
Winds:variable direction winds at 5 MPH (4 knots; 2.1 m/s)
Visibility:10 or more sm (16+ km)
Ceiling:at least 12,000 feet AGL
Clouds:sky clear below 12,000 feet AGL
QC Flag:automated observation with no human augmentation
Text:KHLB 021255Z AUTO 00000KT 10SM CLR 22/22 A3003 RMK A01
Temperature: 22.0°C ( 72°F)
Dewpoint: 22.0°C ( 72°F) [RH = 100%]
Pressure (altimeter):30.03 inches Hg (1017.0 mb)
Winds:calm
Visibility:10 or more sm (16+ km)
Ceiling:at least 12,000 feet AGL
Clouds:sky clear below 12,000 feet AGL
QC Flag:automated observation with no human augmentation
Text:KHLB 021225Z AUTO 00000KT 9SM CLR 21/21 A3003 RMK A01
Temperature: 21.0°C ( 70°F)
Dewpoint: 21.0°C ( 70°F) [RH = 100%]
Pressure (altimeter):30.03 inches Hg (1017.0 mb)
Winds:calm
Visibility: 9 sm ( 14 km)
Ceiling:at least 12,000 feet AGL
Clouds:sky clear below 12,000 feet AGL
QC Flag:automated observation with no human augmentation
Text:KHLB 021215Z AUTO 00000KT 9SM CLR 21/21 A3003 RMK A01
Temperature: 21.0°C ( 70°F)
Dewpoint: 21.0°C ( 70°F) [RH = 100%]
Pressure (altimeter):30.03 inches Hg (1017.0 mb)
Winds:calm
Visibility: 9 sm ( 14 km)
Ceiling:at least 12,000 feet AGL
Clouds:sky clear below 12,000 feet AGL
QC Flag:automated observation with no human augmentation
Text:KHLB 021155Z AUTO 00000KT 7SM CLR 21/21 A3003 RMK A01
Temperature: 21.0°C ( 70°F)
Dewpoint: 21.0°C ( 70°F) [RH = 100%]
Pressure (altimeter):30.03 inches Hg (1017.0 mb)
Winds:calm
Visibility: 7 sm ( 11 km)
Ceiling:at least 12,000 feet AGL
Clouds:sky clear below 12,000 feet AGL
QC Flag:automated observation with no human augmentation
Text:KHLB 021135Z AUTO 00000KT 4SM BR 20/20 A3002 RMK A01
Temperature: 20.0°C ( 68°F)
Dewpoint: 20.0°C ( 68°F) [RH = 100%]
Pressure (altimeter):30.02 inches Hg (1016.7 mb)
Winds:calm
Visibility: 4 sm ( 6 km)
Weather:BR (mist)
QC Flag:automated observation with no human augmentation
Text:KHLB 020920Z AUTO 00000KT 8SM FEW030 BKN046 BKN055 21/21 A3000 RMK A01
Temperature: 21.0°C ( 70°F)
Dewpoint: 21.0°C ( 70°F) [RH = 100%]
Pressure (altimeter):30.00 inches Hg (1016.0 mb)
Winds:calm
Visibility: 8 sm ( 13 km)
Ceiling:4600 feet AGL
Clouds: few clouds at 3000 feet AGL, broken clouds at 4600 feet AGL, broken clouds at 5500 feet AGL
QC Flag:automated observation with no human augmentation
Text:KHLB 020915Z AUTO 00000KT 9SM BKN047 BKN055 BKN060 21/21 A3000 RMK A01
Temperature: 21.0°C ( 70°F)
Dewpoint: 21.0°C ( 70°F) [RH = 100%]
Pressure (altimeter):30.00 inches Hg (1016.0 mb)
Winds:calm
Visibility: 9 sm ( 14 km)
Ceiling:4700 feet AGL
Clouds: broken clouds at 4700 feet AGL, broken clouds at 5500 feet AGL, broken clouds at 6000 feet AGL
QC Flag:automated observation with no human augmentation
Text:KHLB 020855Z AUTO 00000KT 3SM BR SCT045 BKN055 OVC070 21/21 A3000 RMK A01 P0004
Temperature: 21.0°C ( 70°F)
Dewpoint: 21.0°C ( 70°F) [RH = 100%]
Pressure (altimeter):30.00 inches Hg (1016.0 mb)
Winds:calm
Visibility: 3 sm ( 5 km)
Ceiling:5500 feet AGL
Clouds: scattered clouds at 4500 feet AGL, broken clouds at 5500 feet AGL, overcast cloud deck at 7000 feet AGL
Weather:BR (mist)
QC Flag:automated observation with no human augmentation
Text:KHLB 020835Z AUTO 00000KT 3SM BR FEW003 BKN048 OVC110 21/21 A3000 RMK A01
Temperature: 21.0°C ( 70°F)
Dewpoint: 21.0°C ( 70°F) [RH = 100%]
Pressure (altimeter):30.00 inches Hg (1016.0 mb)
Winds:calm
Visibility: 3 sm ( 5 km)
Ceiling:4800 feet AGL
Clouds: few clouds at 300 feet AGL, broken clouds at 4800 feet AGL, overcast cloud deck at 11000 feet AGL
Weather:BR (mist)
QC Flag:automated observation with no human augmentation
Text:KHLB 020815Z AUTO 00000KT 9SM SCT048 BKN055 21/21 A2999 RMK A01
Temperature: 21.0°C ( 70°F)
Dewpoint: 21.0°C ( 70°F) [RH = 100%]
Pressure (altimeter):29.99 inches Hg (1015.7 mb)
Winds:calm
Visibility: 9 sm ( 14 km)
Ceiling:5500 feet AGL
Clouds: scattered clouds at 4800 feet AGL, broken clouds at 5500 feet AGL
QC Flag:automated observation with no human augmentation
Text:KHLB 020755Z AUTO 00000KT 8SM CLR 21/21 A2998 RMK A01
Temperature: 21.0°C ( 70°F)
Dewpoint: 21.0°C ( 70°F) [RH = 100%]
Pressure (altimeter):29.98 inches Hg (1015.3 mb)
Winds:calm
Visibility: 8 sm ( 13 km)
Ceiling:at least 12,000 feet AGL
Clouds:sky clear below 12,000 feet AGL
QC Flag:automated observation with no human augmentation
Text:KHLB 020735Z AUTO 00000KT 10SM CLR 21/21 A2998 RMK A01
Temperature: 21.0°C ( 70°F)
Dewpoint: 21.0°C ( 70°F) [RH = 100%]
Pressure (altimeter):29.98 inches Hg (1015.3 mb)
Winds:calm
Visibility:10 or more sm (16+ km)
Ceiling:at least 12,000 feet AGL
Clouds:sky clear below 12,000 feet AGL
QC Flag:automated observation with no human augmentation
Text:KHLB 020715Z AUTO VRB03KT 10SM FEW025 SCT045 BKN100 21/21 A2998 RMK A01
Temperature: 21.0°C ( 70°F)
Dewpoint: 21.0°C ( 70°F) [RH = 100%]
Pressure (altimeter):29.98 inches Hg (1015.3 mb)
Winds:variable direction winds at 3 MPH (3 knots; 1.5 m/s)
Visibility:10 or more sm (16+ km)
Ceiling:10000 feet AGL
Clouds: few clouds at 2500 feet AGL, scattered clouds at 4500 feet AGL, broken clouds at 10000 feet AGL
QC Flag:automated observation with no human augmentation
Text:KHLB 020655Z AUTO 32006G12KT 6SM BR SCT041 BKN048 OVC110 22/22 A2999 RMK A01 P0001
Temperature: 22.0°C ( 72°F)
Dewpoint: 22.0°C ( 72°F) [RH = 100%]
Pressure (altimeter):29.99 inches Hg (1015.7 mb)
Winds:from the NW (320 degrees) at 7 MPH (6 knots; 3.1 m/s) gusting to 14 MPH (12 knots; 6.2 m/s)
Visibility: 6 sm ( 10 km)
Ceiling:4800 feet AGL
Clouds: scattered clouds at 4100 feet AGL, broken clouds at 4800 feet AGL, overcast cloud deck at 11000 feet AGL
Weather:BR (mist)
QC Flag:automated observation with no human augmentation
Text:KHLB 020635Z AUTO 30006KT 10SM BKN042 BKN055 BKN070 21/21 A3001 RMK A01
Temperature: 21.0°C ( 70°F)
Dewpoint: 21.0°C ( 70°F) [RH = 100%]
Pressure (altimeter):30.01 inches Hg (1016.3 mb)
Winds:from the WNW (300 degrees) at 7 MPH (6 knots; 3.1 m/s)
Visibility:10 or more sm (16+ km)
Ceiling:4200 feet AGL
Clouds: broken clouds at 4200 feet AGL, broken clouds at 5500 feet AGL, broken clouds at 7000 feet AGL
QC Flag:automated observation with no human augmentation
Text:KHLB 020615Z AUTO 00000KT 10SM FEW045 FEW055 FEW070 21/21 A2998 RMK A01
Temperature: 21.0°C ( 70°F)
Dewpoint: 21.0°C ( 70°F) [RH = 100%]
Pressure (altimeter):29.98 inches Hg (1015.3 mb)
Winds:calm
Visibility:10 or more sm (16+ km)
Ceiling:at least 12,000 feet AGL
Clouds: few clouds at 4500 feet AGL, few clouds at 5500 feet AGL, few clouds at 7000 feet AGL
QC Flag:automated observation with no human augmentation
Text:KHLB 020555Z AUTO 00000KT 10SM CLR 21/21 A2998 RMK A01
Temperature: 21.0°C ( 70°F)
Dewpoint: 21.0°C ( 70°F) [RH = 100%]
Pressure (altimeter):29.98 inches Hg (1015.3 mb)
Winds:calm
Visibility:10 or more sm (16+ km)
Ceiling:at least 12,000 feet AGL
Clouds:sky clear below 12,000 feet AGL
QC Flag:automated observation with no human augmentation
Text:KHLB 020535Z AUTO 00000KT 10SM CLR 21/21 A2998 RMK A01
Temperature: 21.0°C ( 70°F)
Dewpoint: 21.0°C ( 70°F) [RH = 100%]
Pressure (altimeter):29.98 inches Hg (1015.3 mb)
Winds:calm
Visibility:10 or more sm (16+ km)
Ceiling:at least 12,000 feet AGL
Clouds:sky clear below 12,000 feet AGL
QC Flag:automated observation with no human augmentation
Text:KHLB 020515Z AUTO 00000KT 10SM CLR 21/21 A2998 RMK A01
Temperature: 21.0°C ( 70°F)
Dewpoint: 21.0°C ( 70°F) [RH = 100%]
Pressure (altimeter):29.98 inches Hg (1015.3 mb)
Winds:calm
Visibility:10 or more sm (16+ km)
Ceiling:at least 12,000 feet AGL
Clouds:sky clear below 12,000 feet AGL
QC Flag:automated observation with no human augmentation
Text:KHLB 020455Z AUTO 00000KT 10SM CLR 21/21 A2998 RMK A01
Temperature: 21.0°C ( 70°F)
Dewpoint: 21.0°C ( 70°F) [RH = 100%]
Pressure (altimeter):29.98 inches Hg (1015.3 mb)
Winds:calm
Visibility:10 or more sm (16+ km)
Ceiling:at least 12,000 feet AGL
Clouds:sky clear below 12,000 feet AGL
QC Flag:automated observation with no human augmentation
Text:KHLB 020435Z AUTO 00000KT 10SM CLR 21/21 A2998 RMK A01
Temperature: 21.0°C ( 70°F)
Dewpoint: 21.0°C ( 70°F) [RH = 100%]
Pressure (altimeter):29.98 inches Hg (1015.3 mb)
Winds:calm
Visibility:10 or more sm (16+ km)
Ceiling:at least 12,000 feet AGL
Clouds:sky clear below 12,000 feet AGL
QC Flag:automated observation with no human augmentation
Text:KHLB 020415Z AUTO 00000KT 10SM CLR 21/21 A2998 RMK A01
Temperature: 21.0°C ( 70°F)
Dewpoint: 21.0°C ( 70°F) [RH = 100%]
Pressure (altimeter):29.98 inches Hg (1015.3 mb)
Winds:calm
Visibility:10 or more sm (16+ km)
Ceiling:at least 12,000 feet AGL
Clouds:sky clear below 12,000 feet AGL
QC Flag:automated observation with no human augmentation
Text:KHLB 020355Z AUTO 00000KT 9SM CLR 21/21 A2998 RMK A01
Temperature: 21.0°C ( 70°F)
Dewpoint: 21.0°C ( 70°F) [RH = 100%]
Pressure (altimeter):29.98 inches Hg (1015.3 mb)
Winds:calm
Visibility: 9 sm ( 14 km)
Ceiling:at least 12,000 feet AGL
Clouds:sky clear below 12,000 feet AGL
QC Flag:automated observation with no human augmentation
Text:KHLB 020335Z AUTO 00000KT 10SM FEW044 21/21 A2998 RMK A01
Temperature: 21.0°C ( 70°F)
Dewpoint: 21.0°C ( 70°F) [RH = 100%]
Pressure (altimeter):29.98 inches Hg (1015.3 mb)
Winds:calm
Visibility:10 or more sm (16+ km)
Ceiling:at least 12,000 feet AGL
Clouds: few clouds at 4400 feet AGL
QC Flag:automated observation with no human augmentation
Text:KHLB 020315Z AUTO 00000KT 10SM FEW036 SCT043 SCT048 22/22 A2999 RMK A01
Temperature: 22.0°C ( 72°F)
Dewpoint: 22.0°C ( 72°F) [RH = 100%]
Pressure (altimeter):29.99 inches Hg (1015.7 mb)
Winds:calm
Visibility:10 or more sm (16+ km)
Ceiling:at least 12,000 feet AGL
Clouds: few clouds at 3600 feet AGL, scattered clouds at 4300 feet AGL, scattered clouds at 4800 feet AGL
QC Flag:automated observation with no human augmentation
Text:KHLB 020255Z AUTO 00000KT 10SM FEW037 BKN045 BKN055 22/22 A3000 RMK A01
Temperature: 22.0°C ( 72°F)
Dewpoint: 22.0°C ( 72°F) [RH = 100%]
Pressure (altimeter):30.00 inches Hg (1016.0 mb)
Winds:calm
Visibility:10 or more sm (16+ km)
Ceiling:4500 feet AGL
Clouds: few clouds at 3700 feet AGL, broken clouds at 4500 feet AGL, broken clouds at 5500 feet AGL
QC Flag:automated observation with no human augmentation
Text:KHLB 020235Z AUTO 00000KT 10SM FEW043 BKN050 23/23 A2999 RMK A01
Temperature: 23.0°C ( 73°F)
Dewpoint: 23.0°C ( 73°F) [RH = 100%]
Pressure (altimeter):29.99 inches Hg (1015.7 mb)
Winds:calm
Visibility:10 or more sm (16+ km)
Ceiling:5000 feet AGL
Clouds: few clouds at 4300 feet AGL, broken clouds at 5000 feet AGL
QC Flag:automated observation with no human augmentation
Text:KHLB 020215Z AUTO 00000KT 10SM FEW043 SCT050 23/23 A2999 RMK A01
Temperature: 23.0°C ( 73°F)
Dewpoint: 23.0°C ( 73°F) [RH = 100%]
Pressure (altimeter):29.99 inches Hg (1015.7 mb)
Winds:calm
Visibility:10 or more sm (16+ km)
Ceiling:at least 12,000 feet AGL
Clouds: few clouds at 4300 feet AGL, scattered clouds at 5000 feet AGL
QC Flag:automated observation with no human augmentation
Text:KHLB 020155Z AUTO 00000KT 10SM CLR 24/21 A2999 RMK A01
Temperature: 24.0°C ( 75°F)
Dewpoint: 21.0°C ( 70°F) [RH = 83%]
Pressure (altimeter):29.99 inches Hg (1015.7 mb)
Winds:calm
Visibility:10 or more sm (16+ km)
Ceiling:at least 12,000 feet AGL
Clouds:sky clear below 12,000 feet AGL
QC Flag:automated observation with no human augmentation
Text:KHLB 020135Z AUTO 00000KT 10SM SCT038 SCT049 SCT055 24/20 A2999 RMK A01
Temperature: 24.0°C ( 75°F)
Dewpoint: 20.0°C ( 68°F) [RH = 78%]
Pressure (altimeter):29.99 inches Hg (1015.7 mb)
Winds:calm
Visibility:10 or more sm (16+ km)
Ceiling:at least 12,000 feet AGL
Clouds: scattered clouds at 3800 feet AGL, scattered clouds at 4900 feet AGL, scattered clouds at 5500 feet AGL
QC Flag:automated observation with no human augmentation
Text:KHLB 020115Z AUTO 00000KT 10SM BKN038 BKN055 BKN090 24/19 A3001 RMK A01
Temperature: 24.0°C ( 75°F)
Dewpoint: 19.0°C ( 66°F) [RH = 74%]
Pressure (altimeter):30.01 inches Hg (1016.3 mb)
Winds:calm
Visibility:10 or more sm (16+ km)
Ceiling:3800 feet AGL
Clouds: broken clouds at 3800 feet AGL, broken clouds at 5500 feet AGL, broken clouds at 9000 feet AGL
QC Flag:automated observation with no human augmentation
Text:KHLB 020055Z AUTO VRB05G12KT 10SM SCT055 BKN075 OVC100 25/19 A3000 RMK A01
Temperature: 25.0°C ( 77°F)
Dewpoint: 19.0°C ( 66°F) [RH = 69%]
Pressure (altimeter):30.00 inches Hg (1016.0 mb)
Winds:variable direction winds at 6 MPH (5 knots; 2.6 m/s) gusting to 14 MPH (12 knots; 6.2 m/s)
Visibility:10 or more sm (16+ km)
Ceiling:7500 feet AGL
Clouds: scattered clouds at 5500 feet AGL, broken clouds at 7500 feet AGL, overcast cloud deck at 10000 feet AGL
QC Flag:automated observation with no human augmentation
Text:KHLB 020035Z AUTO 36008KT 330V040 10SM FEW075 OVC100 27/22 A2999 RMK A01
Temperature: 27.0°C ( 81°F)
Dewpoint: 22.0°C ( 72°F) [RH = 74%]
Pressure (altimeter):29.99 inches Hg (1015.7 mb)
Winds:from the N (360 degrees) at 9 MPH (8 knots; 4.1 m/s)
Visibility:10 or more sm (16+ km)
Ceiling:10000 feet AGL
Clouds: few clouds at 7500 feet AGL, overcast cloud deck at 10000 feet AGL
QC Flag:automated observation with no human augmentation
Text:KHLB 020015Z AUTO 00000KT 10SM BKN100 BKN120 28/22 A2998 RMK A01
Temperature: 28.0°C ( 82°F)
Dewpoint: 22.0°C ( 72°F) [RH = 70%]
Pressure (altimeter):29.98 inches Hg (1015.3 mb)
Winds:calm
Visibility:10 or more sm (16+ km)
Ceiling:10000 feet AGL
Clouds: broken clouds at 10000 feet AGL, broken clouds at 12000 feet AGL
QC Flag:automated observation with no human augmentation
Text:KHLB 012355Z AUTO 00000KT 10SM FEW120 28/21 A2995 RMK A01
Temperature: 28.0°C ( 82°F)
Dewpoint: 21.0°C ( 70°F) [RH = 66%]
Pressure (altimeter):29.95 inches Hg (1014.3 mb)
Winds:calm
Visibility:10 or more sm (16+ km)
Ceiling:at least 12,000 feet AGL
Clouds: few clouds at 12000 feet AGL
QC Flag:automated observation with no human augmentation
Text:KHLB 012335Z AUTO 00000KT 10SM FEW075 29/21 A2997 RMK A01
Temperature: 29.0°C ( 84°F)
Dewpoint: 21.0°C ( 70°F) [RH = 62%]
Pressure (altimeter):29.97 inches Hg (1015.0 mb)
Winds:calm
Visibility:10 or more sm (16+ km)
Ceiling:at least 12,000 feet AGL
Clouds: few clouds at 7500 feet AGL
QC Flag:automated observation with no human augmentation
Text:KHLB 012315Z AUTO 00000KT 10SM FEW075 FEW095 29/20 A2997 RMK A01
Temperature: 29.0°C ( 84°F)
Dewpoint: 20.0°C ( 68°F) [RH = 58%]
Pressure (altimeter):29.97 inches Hg (1015.0 mb)
Winds:calm
Visibility:10 or more sm (16+ km)
Ceiling:at least 12,000 feet AGL
Clouds: few clouds at 7500 feet AGL, few clouds at 9500 feet AGL
QC Flag:automated observation with no human augmentation
Text:KHLB 012255Z AUTO VRB03G10KT 10SM FEW050 SCT060 BKN075 29/20 A2998 RMK A01
Temperature: 29.0°C ( 84°F)
Dewpoint: 20.0°C ( 68°F) [RH = 58%]
Pressure (altimeter):29.98 inches Hg (1015.3 mb)
Winds:variable direction winds at 3 MPH (3 knots; 1.5 m/s) gusting to 12 MPH (10 knots; 5.1 m/s)
Visibility:10 or more sm (16+ km)
Ceiling:7500 feet AGL
Clouds: few clouds at 5000 feet AGL, scattered clouds at 6000 feet AGL, broken clouds at 7500 feet AGL
QC Flag:automated observation with no human augmentation
Text:KHLB 012235Z AUTO VRB06G11KT 10SM SCT050 BKN060 BKN075 30/21 A2997 RMK A01
Temperature: 30.0°C ( 86°F)
Dewpoint: 21.0°C ( 70°F) [RH = 59%]
Pressure (altimeter):29.97 inches Hg (1015.0 mb)
Winds:variable direction winds at 7 MPH (6 knots; 3.1 m/s) gusting to 13 MPH (11 knots; 5.7 m/s)
Visibility:10 or more sm (16+ km)
Ceiling:6000 feet AGL
Clouds: scattered clouds at 5000 feet AGL, broken clouds at 6000 feet AGL, broken clouds at 7500 feet AGL
QC Flag:automated observation with no human augmentation
Text:KHLB 012215Z AUTO VRB06G15KT 10SM BKN050 BKN070 BKN110 31/21 A2997 RMK A01
Temperature: 31.0°C ( 88°F)
Dewpoint: 21.0°C ( 70°F) [RH = 55%]
Pressure (altimeter):29.97 inches Hg (1015.0 mb)
Winds:variable direction winds at 7 MPH (6 knots; 3.1 m/s) gusting to 17 MPH (15 knots; 7.7 m/s)
Visibility:10 or more sm (16+ km)
Ceiling:5000 feet AGL
Clouds: broken clouds at 5000 feet AGL, broken clouds at 7000 feet AGL, broken clouds at 11000 feet AGL
QC Flag:automated observation with no human augmentation
Text:KHLB 012155Z AUTO VRB04G10KT 10SM SCT055 SCT110 32/22 A2997 RMK A01
Temperature: 32.0°C ( 90°F)
Dewpoint: 22.0°C ( 72°F) [RH = 56%]
Pressure (altimeter):29.97 inches Hg (1015.0 mb)
Winds:variable direction winds at 5 MPH (4 knots; 2.1 m/s) gusting to 12 MPH (10 knots; 5.1 m/s)
Visibility:10 or more sm (16+ km)
Ceiling:at least 12,000 feet AGL
Clouds: scattered clouds at 5500 feet AGL, scattered clouds at 11000 feet AGL
QC Flag:automated observation with no human augmentation
Text:KHLB 012135Z AUTO VRB05G10KT 10SM CLR 32/21 A2996 RMK A01
Temperature: 32.0°C ( 90°F)
Dewpoint: 21.0°C ( 70°F) [RH = 52%]
Pressure (altimeter):29.96 inches Hg (1014.6 mb)
Winds:variable direction winds at 6 MPH (5 knots; 2.6 m/s) gusting to 12 MPH (10 knots; 5.1 m/s)
Visibility:10 or more sm (16+ km)
Ceiling:at least 12,000 feet AGL
Clouds:sky clear below 12,000 feet AGL
QC Flag:automated observation with no human augmentation
Text:KHLB 012115Z AUTO 27004KT 10SM FEW050 32/22 A2997 RMK A01
Temperature: 32.0°C ( 90°F)
Dewpoint: 22.0°C ( 72°F) [RH = 56%]
Pressure (altimeter):29.97 inches Hg (1015.0 mb)
Winds:from the W (270 degrees) at 5 MPH (4 knots; 2.1 m/s)
Visibility:10 or more sm (16+ km)
Ceiling:at least 12,000 feet AGL
Clouds: few clouds at 5000 feet AGL
QC Flag:automated observation with no human augmentation
Text:KHLB 012055Z AUTO VRB04KT 10SM FEW049 FEW060 31/21 A2998 RMK A01
Temperature: 31.0°C ( 88°F)
Dewpoint: 21.0°C ( 70°F) [RH = 55%]
Pressure (altimeter):29.98 inches Hg (1015.3 mb)
Winds:variable direction winds at 5 MPH (4 knots; 2.1 m/s)
Visibility:10 or more sm (16+ km)
Ceiling:at least 12,000 feet AGL
Clouds: few clouds at 4900 feet AGL, few clouds at 6000 feet AGL
QC Flag:automated observation with no human augmentation
Text:KHLB 012035Z AUTO 00000G10KT 10SM SCT049 SCT060 BKN095 31/22 A2998 RMK A01
Temperature: 31.0°C ( 88°F)
Dewpoint: 22.0°C ( 72°F) [RH = 59%]
Pressure (altimeter):29.98 inches Hg (1015.3 mb)
Winds:calm
Visibility:10 or more sm (16+ km)
Ceiling:9500 feet AGL
Clouds: scattered clouds at 4900 feet AGL, scattered clouds at 6000 feet AGL, broken clouds at 9500 feet AGL
QC Flag:automated observation with no human augmentation
Text:KHLB 012015Z AUTO VRB04KT 10SM SCT050 SCT060 SCT075 31/22 A2999 RMK A01
Temperature: 31.0°C ( 88°F)
Dewpoint: 22.0°C ( 72°F) [RH = 59%]
Pressure (altimeter):29.99 inches Hg (1015.7 mb)
Winds:variable direction winds at 5 MPH (4 knots; 2.1 m/s)
Visibility:10 or more sm (16+ km)
Ceiling:at least 12,000 feet AGL
Clouds: scattered clouds at 5000 feet AGL, scattered clouds at 6000 feet AGL, scattered clouds at 7500 feet AGL
QC Flag:automated observation with no human augmentation
Text:KHLB 011955Z AUTO VRB04KT 10SM SCT050 SCT055 32/21 A2998 RMK A01
Temperature: 32.0°C ( 90°F)
Dewpoint: 21.0°C ( 70°F) [RH = 52%]
Pressure (altimeter):29.98 inches Hg (1015.3 mb)
Winds:variable direction winds at 5 MPH (4 knots; 2.1 m/s)
Visibility:10 or more sm (16+ km)
Ceiling:at least 12,000 feet AGL
Clouds: scattered clouds at 5000 feet AGL, scattered clouds at 5500 feet AGL
QC Flag:automated observation with no human augmentation
Text:KHLB 011935Z AUTO VRB06G11KT 10SM SCT049 32/21 A2999 RMK A01
Temperature: 32.0°C ( 90°F)
Dewpoint: 21.0°C ( 70°F) [RH = 52%]
Pressure (altimeter):29.99 inches Hg (1015.7 mb)
Winds:variable direction winds at 7 MPH (6 knots; 3.1 m/s) gusting to 13 MPH (11 knots; 5.7 m/s)
Visibility:10 or more sm (16+ km)
Ceiling:at least 12,000 feet AGL
Clouds: scattered clouds at 4900 feet AGL
QC Flag:automated observation with no human augmentation
Text:KHLB 011915Z AUTO 00000G12KT 10SM FEW049 FEW065 32/21 A2999 RMK A01
Temperature: 32.0°C ( 90°F)
Dewpoint: 21.0°C ( 70°F) [RH = 52%]
Pressure (altimeter):29.99 inches Hg (1015.7 mb)
Winds:calm
Visibility:10 or more sm (16+ km)
Ceiling:at least 12,000 feet AGL
Clouds: few clouds at 4900 feet AGL, few clouds at 6500 feet AGL
QC Flag:automated observation with no human augmentation
Text:KHLB 011855Z AUTO VRB05G10KT 10SM FEW050 FEW060 SCT070 32/22 A3000 RMK A01
Temperature: 32.0°C ( 90°F)
Dewpoint: 22.0°C ( 72°F) [RH = 56%]
Pressure (altimeter):30.00 inches Hg (1016.0 mb)
Winds:variable direction winds at 6 MPH (5 knots; 2.6 m/s) gusting to 12 MPH (10 knots; 5.1 m/s)
Visibility:10 or more sm (16+ km)
Ceiling:at least 12,000 feet AGL
Clouds: few clouds at 5000 feet AGL, few clouds at 6000 feet AGL, scattered clouds at 7000 feet AGL
QC Flag:automated observation with no human augmentation
Text:KHLB 011835Z AUTO VRB06G11KT 10SM SCT047 BKN060 BKN075 31/21 A3001 RMK A01
Temperature: 31.0°C ( 88°F)
Dewpoint: 21.0°C ( 70°F) [RH = 55%]
Pressure (altimeter):30.01 inches Hg (1016.3 mb)
Winds:variable direction winds at 7 MPH (6 knots; 3.1 m/s) gusting to 13 MPH (11 knots; 5.7 m/s)
Visibility:10 or more sm (16+ km)
Ceiling:6000 feet AGL
Clouds: scattered clouds at 4700 feet AGL, broken clouds at 6000 feet AGL, broken clouds at 7500 feet AGL
QC Flag:automated observation with no human augmentation
Text:KHLB 011815Z AUTO 00000G12KT 10SM SCT046 SCT055 31/22 A3001 RMK A01
Temperature: 31.0°C ( 88°F)
Dewpoint: 22.0°C ( 72°F) [RH = 59%]
Pressure (altimeter):30.01 inches Hg (1016.3 mb)
Winds:calm
Visibility:10 or more sm (16+ km)
Ceiling:at least 12,000 feet AGL
Clouds: scattered clouds at 4600 feet AGL, scattered clouds at 5500 feet AGL
QC Flag:automated observation with no human augmentation
Text:KHLB 011755Z AUTO 27008KT 240V320 10SM CLR 32/22 A3002 RMK A01
Temperature: 32.0°C ( 90°F)
Dewpoint: 22.0°C ( 72°F) [RH = 56%]
Pressure (altimeter):30.02 inches Hg (1016.7 mb)
Winds:from the W (270 degrees) at 9 MPH (8 knots; 4.1 m/s)
Visibility:10 or more sm (16+ km)
Ceiling:at least 12,000 feet AGL
Clouds:sky clear below 12,000 feet AGL
QC Flag:automated observation with no human augmentation